sensor_id;sensor_type;location;lat;lon;timestamp;temperature;humidity
12460;DHT22;6295;49.452;8.466;2023-04-01T04:14:58;10.40;99.90
12460;DHT22;6295;49.452;8.466;2023-04-01T04:23:03;10.30;99.90
12460;DHT22;6295;49.452;8.466;2023-04-01T04:27:05;10.30;99.90
12460;DHT22;6295;49.452;8.466;2023-04-01T04:31:09;10.30;99.90
12460;DHT22;6295;49.452;8.466;2023-04-01T04:35:11;10.30;99.90
12460;DHT22;6295;49.452;8.466;2023-04-01T04:39:13;10.30;99.90
12460;DHT22;6295;49.452;8.466;2023-04-01T04:43:17;10.40;99.90
12460;DHT22;6295;49.452;8.466;2023-04-01T04:47:21;10.30;99.90
12460;DHT22;6295;49.452;8.466;2023-04-01T04:51:23;10.40;99.90
12460;DHT22;6295;49.452;8.466;2023-04-01T04:55:26;10.30;99.90
12460;DHT22;6295;49.452;8.466;2023-04-01T04:59:28;10.30;99.90
12460;DHT22;6295;49.452;8.466;2023-04-01T05:03:31;10.30;99.90
12460;DHT22;6295;49.452;8.466;2023-04-01T05:07:34;10.30;99.90
12460;DHT22;6295;49.452;8.466;2023-04-01T05:11:36;10.30;99.90
12460;DHT22;6295;49.452;8.466;2023-04-01T05:23:44;10.30;99.90
12460;DHT22;6295;49.452;8.466;2023-04-01T05:27:46;10.30;99.90
12460;DHT22;6295;49.452;8.466;2023-04-01T05:31:48;10.30;99.90
12460;DHT22;6295;49.452;8.466;2023-04-01T05:43:59;10.20;99.90
12460;DHT22;6295;49.452;8.466;2023-04-01T05:48:01;10.20;99.90
12460;DHT22;6295;49.452;8.466;2023-04-01T05:52:05;10.20;99.90
12460;DHT22;6295;49.452;8.466;2023-04-01T05:56:07;10.20;99.90
12460;DHT22;6295;49.452;8.466;2023-04-01T06:04:14;10.20;99.90
12460;DHT22;6295;49.452;8.466;2023-04-01T06:12:33;10.20;99.90
12460;DHT22;6295;49.452;8.466;2023-04-01T06:16:56;10.20;99.90
12460;DHT22;6295;49.452;8.466;2023-04-01T06:21:09;10.20;99.90
12460;DHT22;6295;49.452;8.466;2023-04-01T06:25:30;10.20;99.90
12460;DHT22;6295;49.452;8.466;2023-04-01T06:30:02;10.30;99.90
12460;DHT22;6295;49.452;8.466;2023-04-01T06:38:51;10.20;99.90
12460;DHT22;6295;49.452;8.466;2023-04-01T06:43:07;10.20;99.90
12460;DHT22;6295;49.452;8.466;2023-04-01T06:47:23;10.20;99.90
12460;DHT22;6295;49.452;8.466;2023-04-01T06:51:38;10.20;99.90
12460;DHT22;6295;49.452;8.466;2023-04-01T06:55:46;10.20;99.90
12460;DHT22;6295;49.452;8.466;2023-04-01T06:59:51;10.20;99.90
12460;DHT22;6295;49.452;8.466;2023-04-01T07:03:56;10.20;99.90
12460;DHT22;6295;49.452;8.466;2023-04-01T07:12:11;10.30;99.90
12460;DHT22;6295;49.452;8.466;2023-04-01T07:16:21;10.30;99.90
12460;DHT22;6295;49.452;8.466;2023-04-01T07:24:36;10.30;99.90
12460;DHT22;6295;49.452;8.466;2023-04-01T07:28:41;10.40;99.90
12460;DHT22;6295;49.452;8.466;2023-04-01T07:32:50;10.40;99.90
12460;DHT22;6295;49.452;8.466;2023-04-01T07:37:02;10.40;99.90
12460;DHT22;6295;49.452;8.466;2023-04-01T07:41:11;10.50;99.90
12460;DHT22;6295;49.452;8.466;2023-04-01T07:45:20;10.50;99.90
12460;DHT22;6295;49.452;8.466;2023-04-01T07:53:40;10.50;99.90
12460;DHT22;6295;49.452;8.466;2023-04-01T07:57:53;10.50;99.90
12460;DHT22;6295;49.452;8.466;2023-04-01T08:02:06;10.50;99.90
12460;DHT22;6295;49.452;8.466;2023-04-01T08:06:16;10.50;99.90
12460;DHT22;6295;49.452;8.466;2023-04-01T08:10:24;10.50;99.90
12460;DHT22;6295;49.452;8.466;2023-04-01T08:14:33;10.50;99.90
12460;DHT22;6295;49.452;8.466;2023-04-01T08:18:41;10.60;99.90
12460;DHT22;6295;49.452;8.466;2023-04-01T08:22:53;10.60;99.90
12460;DHT22;6295;49.452;8.466;2023-04-01T08:27:03;10.60;99.90
12460;DHT22;6295;49.452;8.466;2023-04-01T08:43:48;10.50;99.90
12460;DHT22;6295;49.452;8.466;2023-04-01T08:52:37;10.50;99.90
12460;DHT22;6295;49.452;8.466;2023-04-01T08:56:50;10.50;99.90
12460;DHT22;6295;49.452;8.466;2023-04-01T09:01:14;10.60;99.90
12460;DHT22;6295;49.452;8.466;2023-04-01T09:05:40;10.60;99.90
12460;DHT22;6295;49.452;8.466;2023-04-01T09:10:05;10.60;99.90
12460;DHT22;6295;49.452;8.466;2023-04-01T09:14:26;10.60;99.90
12460;DHT22;6295;49.452;8.466;2023-04-01T09:18:54;10.60;99.90
12460;DHT22;6295;49.452;8.466;2023-04-01T09:23:10;10.60;99.90
12460;DHT22;6295;49.452;8.466;2023-04-01T09:27:26;10.60;99.90
12460;DHT22;6295;49.452;8.466;2023-04-01T09:31:43;10.60;99.90
12460;DHT22;6295;49.452;8.466;2023-04-01T09:36:02;10.50;99.90
12460;DHT22;6295;49.452;8.466;2023-04-01T09:40:14;10.60;99.90
12460;DHT22;6295;49.452;8.466;2023-04-01T09:44:21;10.60;99.90
12460;DHT22;6295;49.452;8.466;2023-04-01T09:53:04;10.70;99.90
12460;DHT22;6295;49.452;8.466;2023-04-01T10:07:06;10.70;99.90
12460;DHT22;6295;49.452;8.466;2023-04-01T10:20:52;10.80;99.90
12460;DHT22;6295;49.452;8.466;2023-04-01T10:25:14;10.80;99.90
12460;DHT22;6295;49.452;8.466;2023-04-01T10:38:46;10.90;99.90
12460;DHT22;6295;49.452;8.466;2023-04-01T10:43:25;11.00;99.90
12460;DHT22;6295;49.452;8.466;2023-04-01T10:52:33;11.00;99.90
12460;DHT22;6295;49.452;8.466;2023-04-01T10:56:51;11.00;99.90
12460;DHT22;6295;49.452;8.466;2023-04-01T11:06:19;11.00;99.90
12460;DHT22;6295;49.452;8.466;2023-04-01T11:15:41;11.10;99.90
12460;DHT22;6295;49.452;8.466;2023-04-01T11:20:31;11.10;99.90
12460;DHT22;6295;49.452;8.466;2023-04-01T11:34:02;11.20;99.90
12460;DHT22;6295;49.452;8.466;2023-04-01T11:38:22;11.20;99.90
12460;DHT22;6295;49.452;8.466;2023-04-01T11:42:40;11.30;99.90
12460;DHT22;6295;49.452;8.466;2023-04-01T11:47:03;11.30;99.90
12460;DHT22;6295;49.452;8.466;2023-04-01T11:51:44;11.30;99.90
12460;DHT22;6295;49.452;8.466;2023-04-01T11:56:16;11.40;99.90
12460;DHT22;6295;49.452;8.466;2023-04-01T12:09:22;11.50;99.90
12460;DHT22;6295;49.452;8.466;2023-04-01T12:13:33;11.50;99.90
12460;DHT22;6295;49.452;8.466;2023-04-01T12:17:45;11.60;99.90
12460;DHT22;6295;49.452;8.466;2023-04-01T12:21:57;11.60;99.90
12460;DHT22;6295;49.452;8.466;2023-04-01T12:26:19;11.60;99.90
12460;DHT22;6295;49.452;8.466;2023-04-01T12:30:46;11.60;99.90
12460;DHT22;6295;49.452;8.466;2023-04-01T12:35:03;11.60;99.90
12460;DHT22;6295;49.452;8.466;2023-04-01T12:44:11;11.70;99.90
12460;DHT22;6295;49.452;8.466;2023-04-01T12:48:48;11.70;99.90
12460;DHT22;6295;49.452;8.466;2023-04-01T12:53:14;11.80;99.90
12460;DHT22;6295;49.452;8.466;2023-04-01T12:57:30;11.80;99.90
12460;DHT22;6295;49.452;8.466;2023-04-01T13:10:58;11.80;99.90
12460;DHT22;6295;49.452;8.466;2023-04-01T13:15:26;11.80;99.90
12460;DHT22;6295;49.452;8.466;2023-04-01T13:19:35;11.80;99.90
12460;DHT22;6295;49.452;8.466;2023-04-01T13:23:49;11.80;99.90
12460;DHT22;6295;49.452;8.466;2023-04-01T13:28:05;11.80;99.90
12460;DHT22;6295;49.452;8.466;2023-04-01T13:32:23;11.80;99.90
12460;DHT22;6295;49.452;8.466;2023-04-01T13:36:40;11.80;99.90
12460;DHT22;6295;49.452;8.466;2023-04-01T13:40:52;11.90;99.90
12460;DHT22;6295;49.452;8.466;2023-04-01T13:45:01;11.90;99.90
12460;DHT22;6295;49.452;8.466;2023-04-01T13:53:49;12.00;99.90
12460;DHT22;6295;49.452;8.466;2023-04-01T14:02:37;12.00;99.90
12460;DHT22;6295;49.452;8.466;2023-04-01T14:06:53;11.90;99.90
12460;DHT22;6295;49.452;8.466;2023-04-01T14:11:10;11.90;99.90
12460;DHT22;6295;49.452;8.466;2023-04-01T14:15:25;11.90;99.90
12460;DHT22;6295;49.452;8.466;2023-04-01T14:20:02;11.90;99.90
12460;DHT22;6295;49.452;8.466;2023-04-01T14:24:30;11.90;99.90
12460;DHT22;6295;49.452;8.466;2023-04-01T14:28:39;11.90;99.90
12460;DHT22;6295;49.452;8.466;2023-04-01T14:32:50;11.90;99.90
12460;DHT22;6295;49.452;8.466;2023-04-01T14:37:05;11.90;99.90
12460;DHT22;6295;49.452;8.466;2023-04-01T14:41:25;11.90;99.90
12460;DHT22;6295;49.452;8.466;2023-04-01T14:49:49;11.90;99.90
12460;DHT22;6295;49.452;8.466;2023-04-01T14:54:05;12.00;99.90
12460;DHT22;6295;49.452;8.466;2023-04-01T14:58:15;11.90;99.90
12460;DHT22;6295;49.452;8.466;2023-04-01T15:02:35;11.90;99.90
12460;DHT22;6295;49.452;8.466;2023-04-01T15:11:26;11.90;99.90
12460;DHT22;6295;49.452;8.466;2023-04-01T15:15:53;11.90;99.90
12460;DHT22;6295;49.452;8.466;2023-04-01T15:20:28;11.90;99.90
12460;DHT22;6295;49.452;8.466;2023-04-01T15:28:53;11.90;99.90
12460;DHT22;6295;49.452;8.466;2023-04-01T15:33:28;11.90;99.90
12460;DHT22;6295;49.452;8.466;2023-04-01T15:37:41;11.90;99.90
12460;DHT22;6295;49.452;8.466;2023-04-01T15:42:16;11.90;99.90
12460;DHT22;6295;49.452;8.466;2023-04-01T15:46:36;12.00;99.90
12460;DHT22;6295;49.452;8.466;2023-04-01T15:55:06;12.00;99.90
12460;DHT22;6295;49.452;8.466;2023-04-01T15:59:27;12.00;99.90
12460;DHT22;6295;49.452;8.466;2023-04-01T16:03:38;12.00;99.90
12460;DHT22;6295;49.452;8.466;2023-04-01T16:07:50;12.00;99.90
12460;DHT22;6295;49.452;8.466;2023-04-01T16:11:59;11.90;99.90
12460;DHT22;6295;49.452;8.466;2023-04-01T16:16:11;12.00;99.90
12460;DHT22;6295;49.452;8.466;2023-04-01T16:20:20;11.90;99.90
12460;DHT22;6295;49.452;8.466;2023-04-01T16:24:34;11.90;99.90
12460;DHT22;6295;49.452;8.466;2023-04-01T16:28:42;11.90;99.90
12460;DHT22;6295;49.452;8.466;2023-04-01T16:32:51;11.90;99.90
12460;DHT22;6295;49.452;8.466;2023-04-01T16:37:03;11.80;99.90
12460;DHT22;6295;49.452;8.466;2023-04-01T16:45:30;11.80;99.90
12460;DHT22;6295;49.452;8.466;2023-04-01T16:49:38;11.80;99.90
12460;DHT22;6295;49.452;8.466;2023-04-01T16:53:47;11.80;99.90
12460;DHT22;6295;49.452;8.466;2023-04-01T16:57:52;11.80;99.90
12460;DHT22;6295;49.452;8.466;2023-04-01T17:02:02;11.70;99.90
12460;DHT22;6295;49.452;8.466;2023-04-01T17:14:30;11.80;99.90
12460;DHT22;6295;49.452;8.466;2023-04-01T17:18:44;11.80;99.90
12460;DHT22;6295;49.452;8.466;2023-04-01T17:22:57;11.80;99.90
12460;DHT22;6295;49.452;8.466;2023-04-01T17:27:11;11.80;99.90
12460;DHT22;6295;49.452;8.466;2023-04-01T17:31:26;11.80;99.90
12460;DHT22;6295;49.452;8.466;2023-04-01T17:35:38;11.80;99.90
12460;DHT22;6295;49.452;8.466;2023-04-01T17:39:53;11.70;99.90
12460;DHT22;6295;49.452;8.466;2023-04-01T17:44:07;11.70;99.90
12460;DHT22;6295;49.452;8.466;2023-04-01T17:48:21;11.70;99.90
12460;DHT22;6295;49.452;8.466;2023-04-01T17:52:29;11.70;99.90
12460;DHT22;6295;49.452;8.466;2023-04-01T17:56:42;11.60;99.90
